F70

French Valley Airport

Murrieta/Temecula, California, USA
METAR KF70 260535Z AUTO 00000KT 10SM CLR 15/09 A3004 RMK AO1
Observed Flight Rules
Apr-26 @ 05:35 UTC (20 minutes ago) Visual Flight Rules
Visibility Clouds
10 miles
  • Clear skies
Temperatures Readings
Current 15°C / 59°F
Dewpoint 9°C / 48°F
Humidity 68%
Altimeter 30.04" Hg
Pressure 1017 hPa
Elevation 412
METAR KF70 260535Z AUTO 00000KT 10SM CLR 15/09 A3004 RMK AO1
Observed Flight Rules
Apr-26 @ 05:35 UTC
(20 minutes ago)
VFR
Clouds
  • Clear skies
Temperature Dewpoint
15°C / 59°F 9°C / 48°F
Humidity Altimeter Pressure
68% 30.04" Hg 1017 hPa